Time;durP1;ratioP1;P1;durP2;ratioP2;P2;SDS_P1;SDS_P2;PMS_P1;PMS_P2;Temp;Humidity;BMP_temperature;BMP_pressure;BME280_temperature;BME280_humidity;BME280_pressure;Samples;Min_cycle;Max_cycle;Signal;HPM_P1;HPM_P2
2023/06/09 00:01:15;;;;;;;10.20;1.65;;;15.80;99.90;;;;;;5028856;28;20029;-72
2023/06/09 00:03:40;;;;;;;9.10;1.75;;;15.70;99.90;;;;;;5049230;28;20060;-72
2023/06/09 00:06:08;;;;;;;6.57;1.40;;;15.70;99.90;;;;;;5047323;28;20079;-72
2023/06/09 00:08:35;;;;;;;11.73;2.42;;;15.70;99.90;;;;;;5047840;28;20040;-72
2023/06/09 00:11:01;;;;;;;8.30;1.65;;;15.60;99.90;;;;;;5029089;28;20094;-73
2023/06/09 00:13:27;;;;;;;7.85;2.30;;;15.60;99.90;;;;;;5047836;28;20065;-73
2023/06/09 00:15:52;;;;;;;7.63;1.90;;;15.60;99.90;;;;;;5029967;28;20040;-74
2023/06/09 00:18:18;;;;;;;7.78;1.27;;;15.50;99.90;;;;;;5047789;28;20037;-72
2023/06/09 00:20:44;;;;;;;15.55;2.58;;;15.50;99.90;;;;;;5047174;28;20549;-71
2023/06/09 00:23:10;;;;;;;6.78;1.33;;;15.50;99.90;;;;;;5029548;28;20063;-72
2023/06/09 00:25:36;;;;;;;10.52;1.65;;;15.50;99.90;;;;;;5047546;28;20041;-72
2023/06/09 00:28:02;;;;;;;4.68;1.38;;;15.40;99.90;;;;;;5028415;28;20401;-74
2023/06/09 00:30:28;;;;;;;6.90;1.58;;;15.40;99.90;;;;;;5030042;28;20037;-73
2023/06/09 00:32:53;;;;;;;12.95;1.70;;;15.40;99.90;;;;;;5029270;28;20562;-72
2023/06/09 00:35:19;;;;;;;7.97;1.65;;;15.40;99.90;;;;;;5047673;28;20132;-73
2023/06/09 00:37:46;;;;;;;7.40;1.80;;;15.40;99.90;;;;;;5047545;28;20112;-72
2023/06/09 00:40:13;;;;;;;4.38;1.20;;;15.40;99.90;;;;;;5025278;28;20405;-72
2023/06/09 00:42:39;;;;;;;4.80;1.58;;;15.40;99.90;;;;;;5047372;28;20136;-73
2023/06/09 00:45:05;;;;;;;8.07;1.50;;;15.40;99.90;;;;;;5029348;28;20445;-73
2023/06/09 00:47:31;;;;;;;10.15;1.70;;;15.30;99.90;;;;;;5047690;28;20409;-73
2023/06/09 00:49:56;;;;;;;6.43;1.42;;;15.30;99.90;;;;;;5047285;28;20037;-72
2023/06/09 00:52:22;;;;;;;9.95;1.85;;;15.30;99.90;;;;;;5029566;28;20064;-72
2023/06/09 00:54:49;;;;;;;10.88;1.67;;;15.30;99.90;;;;;;5029549;28;20053;-72
2023/06/09 00:57:15;;;;;;;11.40;1.98;;;15.20;99.90;;;;;;5029298;28;20090;-73
2023/06/09 00:59:40;;;;;;;8.20;1.52;;;15.20;99.90;;;;;;5045808;28;20028;-72
2023/06/09 01:02:07;;;;;;;6.68;2.05;;;15.10;99.90;;;;;;5050445;28;20489;-71
2023/06/09 01:04:35;;;;;;;10.45;2.15;;;15.10;99.90;;;;;;5036058;28;20033;-72
2023/06/09 01:07:20;;;;;;;7.88;2.15;;;15.10;99.90;;;;;;5032003;28;20033;-71
2023/06/09 01:10:00;;;;;;;11.35;1.85;;;15.00;99.90;;;;;;5025769;28;20163;-72
2023/06/09 01:12:57;;;;;;;5.82;1.58;;;15.00;99.90;;;;;;5033172;28;20060;-72
2023/06/09 01:15:29;;;;;;;10.43;2.25;;;15.00;99.90;;;;;;5031380;28;20041;-72
2023/06/09 01:17:58;;;;;;;10.68;1.50;;;15.00;99.90;;;;;;5032918;28;20036;-72
2023/06/09 01:20:38;;;;;;;13.45;2.13;;;14.90;99.90;;;;;;5032060;28;20033;-73
2023/06/09 01:23:10;;;;;;;6.63;1.40;;;14.90;99.90;;;;;;5032223;28;20037;-74
2023/06/09 01:25:39;;;;;;;8.07;1.75;;;14.90;99.90;;;;;;5032992;28;20033;-72
2023/06/09 01:28:11;;;;;;;8.52;2.65;;;14.80;99.90;;;;;;5049029;28;20083;-72
2023/06/09 01:30:40;;;;;;;8.10;1.88;;;14.80;99.90;;;;;;5032736;28;20044;-72
2023/06/09 01:33:10;;;;;;;9.05;1.90;;;14.80;99.90;;;;;;5032217;28;20067;-72
2023/06/09 01:35:37;;;;;;;7.55;1.50;;;14.80;99.90;;;;;;5032699;28;20049;-72
2023/06/09 01:38:04;;;;;;;7.40;1.52;;;14.80;99.90;;;;;;5031920;28;20041;-73
2023/06/09 01:40:31;;;;;;;9.35;2.17;;;14.80;99.90;;;;;;5032874;28;20102;-72
2023/06/09 01:43:01;;;;;;;5.80;1.73;;;14.80;99.90;;;;;;5050693;28;20045;-72
2023/06/09 01:45:27;;;;;;;6.93;1.58;;;14.80;99.90;;;;;;5033736;28;20183;-72
2023/06/09 01:47:53;;;;;;;14.65;2.15;;;14.70;99.90;;;;;;5034249;28;20497;-73
2023/06/09 01:50:26;;;;;;;6.93;1.45;;;14.70;99.90;;;;;;5032735;28;20029;-71
2023/06/09 01:53:04;;;;;;;12.05;2.83;;;14.70;99.90;;;;;;5032758;28;20116;-72
2023/06/09 01:55:47;;;;;;;6.22;1.85;;;14.70;99.90;;;;;;5032167;28;20045;-71
2023/06/09 01:58:22;;;;;;;9.20;2.05;;;14.60;99.90;;;;;;5031823;28;20034;-72
2023/06/09 02:00:49;;;;;;;7.15;2.42;;;14.60;99.90;;;;;;5031539;28;20036;-72
2023/06/09 02:03:20;;;;;;;9.38;1.88;;;14.60;99.90;;;;;;5032021;28;20036;-72
2023/06/09 02:05:46;;;;;;;5.88;1.92;;;14.60;99.90;;;;;;5034074;28;20514;-72
2023/06/09 02:08:13;;;;;;;7.90;1.90;;;14.60;99.90;;;;;;5032228;28;20030;-73
2023/06/09 02:10:40;;;;;;;8.63;1.85;;;14.50;99.90;;;;;;5050332;28;20075;-71
2023/06/09 02:13:16;;;;;;;7.97;2.03;;;14.50;99.90;;;;;;5049833;28;20033;-71
2023/06/09 02:15:43;;;;;;;7.65;1.90;;;14.50;99.90;;;;;;5028782;28;20037;-74
2023/06/09 02:18:11;;;;;;;7.40;1.73;;;14.50;99.90;;;;;;5031949;28;20052;-71
2023/06/09 02:20:42;;;;;;;10.73;1.98;;;14.50;99.90;;;;;;5032046;28;20074;-72
2023/06/09 02:23:08;;;;;;;12.48;2.38;;;14.50;99.90;;;;;;5027791;28;20628;-72
2023/06/09 02:25:34;;;;;;;7.95;1.70;;;14.40;99.90;;;;;;5049597;28;20029;-71
2023/06/09 02:28:05;;;;;;;10.38;1.65;;;14.40;99.90;;;;;;5049137;28;20405;-72
2023/06/09 02:30:32;;;;;;;8.35;1.50;;;14.40;99.90;;;;;;5049512;28;20029;-72
2023/06/09 02:32:59;;;;;;;5.90;1.60;;;14.40;99.90;;;;;;5031055;28;20041;-72
2023/06/09 02:35:25;;;;;;;6.50;1.67;;;14.40;99.90;;;;;;5031330;28;20082;-72
2023/06/09 02:37:52;;;;;;;6.95;2.10;;;14.30;99.90;;;;;;5049689;28;20497;-71
2023/06/09 02:40:19;;;;;;;6.28;1.40;;;14.30;99.90;;;;;;5030656;28;20501;-73
2023/06/09 02:42:44;;;;;;;9.85;1.60;;;14.30;99.90;;;;;;5031433;28;20401;-72
2023/06/09 02:45:10;;;;;;;5.68;2.33;;;14.30;99.90;;;;;;5048835;28;20025;-73
2023/06/09 02:47:36;;;;;;;9.27;2.15;;;14.30;99.90;;;;;;5031449;28;20040;-72
2023/06/09 02:50:02;;;;;;;7.05;1.50;;;14.20;99.90;;;;;;5030698;28;20021;-73
2023/06/09 02:52:28;;;;;;;4.93;1.90;;;14.30;99.90;;;;;;5031422;28;20029;-74
2023/06/09 02:54:54;;;;;;;6.80;1.70;;;14.30;99.90;;;;;;5030888;28;20497;-72
2023/06/09 02:57:20;;;;;;;4.88;1.70;;;14.20;99.90;;;;;;5031167;28;20032;-72
2023/06/09 02:59:46;;;;;;;13.55;1.98;;;14.20;99.90;;;;;;5030935;28;20676;-72
2023/06/09 03:02:12;;;;;;;9.82;1.70;;;14.20;99.90;;;;;;5030217;28;20043;-71
2023/06/09 03:04:40;;;;;;;4.63;1.50;;;14.20;99.90;;;;;;5032170;28;20497;-72
2023/06/09 03:07:09;;;;;;;11.05;2.47;;;14.10;99.90;;;;;;5048701;28;20090;-72
2023/06/09 03:09:38;;;;;;;10.35;1.75;;;14.10;99.90;;;;;;5046878;28;20545;-73
2023/06/09 03:12:05;;;;;;;7.88;1.83;;;14.20;99.90;;;;;;5035502;28;20496;-72
2023/06/09 03:14:31;;;;;;;11.10;3.38;;;14.10;99.90;;;;;;5030969;28;20033;-72
2023/06/09 03:16:58;;;;;;;6.53;1.65;;;14.10;99.90;;;;;;5030437;28;20043;-72
2023/06/09 03:19:24;;;;;;;7.93;2.10;;;14.10;99.90;;;;;;5048245;28;20500;-72
2023/06/09 03:21:49;;;;;;;9.48;1.70;;;14.00;99.90;;;;;;5048113;28;20036;-73
2023/06/09 03:24:15;;;;;;;7.35;1.60;;;14.10;99.90;;;;;;5048302;28;20029;-72
2023/06/09 03:26:41;;;;;;;9.90;1.63;;;14.00;99.90;;;;;;5048865;28;20111;-72
2023/06/09 03:29:07;;;;;;;10.82;1.98;;;14.00;99.90;;;;;;5030116;28;20163;-72
2023/06/09 03:31:32;;;;;;;8.95;1.90;;;14.00;99.90;;;;;;5048455;28;20107;-73
2023/06/09 03:33:58;;;;;;;9.07;2.05;;;14.00;99.90;;;;;;5047830;28;20040;-72
2023/06/09 03:36:24;;;;;;;10.88;2.00;;;14.00;99.90;;;;;;5030474;28;20056;-72
2023/06/09 03:38:50;;;;;;;7.15;1.70;;;14.00;99.90;;;;;;5048346;28;20112;-71
2023/06/09 03:41:15;;;;;;;8.07;2.17;;;13.90;99.90;;;;;;5029903;28;20144;-74
2023/06/09 03:43:41;;;;;;;10.27;2.08;;;14.00;99.90;;;;;;5030916;28;20040;-72
2023/06/09 03:46:07;;;;;;;7.05;2.00;;;13.90;99.90;;;;;;5030152;28;20044;-72
2023/06/09 03:48:32;;;;;;;5.18;1.40;;;13.90;99.90;;;;;;5048809;28;20115;-72
2023/06/09 03:50:58;;;;;;;5.18;1.45;;;13.90;99.90;;;;;;5029772;28;20029;-72
2023/06/09 03:53:23;;;;;;;8.70;1.77;;;13.90;99.90;;;;;;5030614;28;20033;-72
2023/06/09 03:55:49;;;;;;;3.47;1.73;;;13.90;99.90;;;;;;5030597;28;20501;-71
2023/06/09 03:58:14;;;;;;;3.67;1.52;;;13.80;99.90;;;;;;5030089;28;20037;-71
2023/06/09 04:00:42;;;;;;;8.07;2.22;;;13.80;99.90;;;;;;5030672;28;20500;-72
2023/06/09 04:03:08;;;;;;;11.48;1.80;;;13.90;99.90;;;;;;5029647;28;20615;-72
2023/06/09 04:05:34;;;;;;;4.50;1.63;;;13.80;99.90;;;;;;5032115;28;20043;-71
2023/06/09 04:07:59;;;;;;;6.07;1.90;;;13.90;99.90;;;;;;5030395;28;20055;-72
2023/06/09 04:10:25;;;;;;;6.53;1.63;;;13.80;99.90;;;;;;5030391;28;20041;-72
2023/06/09 04:12:50;;;;;;;7.30;1.58;;;13.90;99.90;;;;;;5030135;28;20039;-72
2023/06/09 04:15:17;;;;;;;7.32;1.67;;;13.90;99.90;;;;;;5047680;28;20033;-73
2023/06/09 04:17:43;;;;;;;8.45;2.38;;;13.80;99.90;;;;;;5047806;28;20516;-71
2023/06/09 04:20:09;;;;;;;11.02;2.20;;;13.90;99.90;;;;;;5029627;28;20040;-71
2023/06/09 04:22:35;;;;;;;9.35;1.98;;;13.90;99.90;;;;;;5030082;28;20094;-72
2023/06/09 04:25:01;;;;;;;10.38;1.88;;;13.90;99.90;;;;;;5047558;28;20029;-72
2023/06/09 04:27:27;;;;;;;5.63;1.48;;;13.90;99.90;;;;;;5047858;28;20120;-72
2023/06/09 04:29:53;;;;;;;5.57;1.60;;;14.00;99.90;;;;;;5029932;28;20037;-72
2023/06/09 04:32:19;;;;;;;13.55;1.88;;;13.90;99.90;;;;;;5046981;28;20044;-72
2023/06/09 04:34:46;;;;;;;9.30;1.75;;;14.10;99.90;;;;;;5050505;28;20052;-72
2023/06/09 04:37:12;;;;;;;8.90;2.25;;;14.10;99.90;;;;;;5033105;28;20060;-73
2023/06/09 04:39:41;;;;;;;16.65;2.28;;;14.10;99.90;;;;;;5027086;28;20044;-72
2023/06/09 04:42:07;;;;;;;10.18;2.33;;;14.10;99.90;;;;;;5033627;28;20029;-71
2023/06/09 04:44:33;;;;;;;12.40;2.72;;;14.10;99.90;;;;;;5051447;28;20025;-72
2023/06/09 04:46:59;;;;;;;8.48;2.45;;;14.20;99.90;;;;;;5032915;28;20033;-72
2023/06/09 04:49:28;;;;;;;10.43;2.42;;;14.20;99.90;;;;;;5033733;28;20497;-72
2023/06/09 04:51:54;;;;;;;8.82;1.85;;;14.20;99.90;;;;;;5033722;28;20033;-72
2023/06/09 04:54:22;;;;;;;8.80;2.72;;;14.30;99.90;;;;;;5052065;28;20039;-71
2023/06/09 04:56:52;;;;;;;8.75;2.75;;;14.40;99.90;;;;;;5035151;28;20037;-72
2023/06/09 04:59:18;;;;;;;6.72;1.85;;;14.40;99.90;;;;;;5051491;28;20493;-72
2023/06/09 05:01:47;;;;;;;7.72;1.80;;;14.40;99.90;;;;;;5060107;28;20041;-71
2023/06/09 05:04:13;;;;;;;7.43;2.35;;;14.40;99.90;;;;;;5035519;28;20053;-70
2023/06/09 05:06:39;;;;;;;18.23;2.78;;;14.40;99.90;;;;;;5035782;28;20037;-71
2023/06/09 05:09:06;;;;;;;8.07;2.13;;;14.50;99.90;;;;;;5050950;28;20128;-73
2023/06/09 05:11:32;;;;;;;9.10;2.03;;;14.60;99.90;;;;;;5033331;28;20064;-72
2023/06/09 05:13:57;;;;;;;6.72;2.22;;;14.70;99.90;;;;;;5056107;28;20401;-71
2023/06/09 05:16:25;;;;;;;8.43;2.53;;;14.70;99.90;;;;;;5051165;28;20497;-71
2023/06/09 05:18:52;;;;;;;7.07;1.90;;;14.70;99.90;;;;;;5033039;28;20485;-72
2023/06/09 05:21:17;;;;;;;8.60;2.10;;;14.80;99.90;;;;;;5051053;28;20459;-71
2023/06/09 05:23:43;;;;;;;7.68;2.20;;;14.80;99.90;;;;;;5033351;28;20124;-70
2023/06/09 05:26:09;;;;;;;7.53;2.75;;;14.90;99.90;;;;;;5050364;28;20602;-71
2023/06/09 05:28:34;;;;;;;13.20;3.05;;;15.00;99.90;;;;;;5050501;28;20060;-73
2023/06/09 05:31:01;;;;;;;8.27;2.45;;;15.00;99.90;;;;;;5050333;28;20485;-73
2023/06/09 05:33:27;;;;;;;8.75;1.77;;;15.20;99.90;;;;;;5050105;28;20041;-72
2023/06/09 05:35:52;;;;;;;8.93;2.15;;;15.40;99.90;;;;;;5032697;28;20044;-72
2023/06/09 05:38:19;;;;;;;11.07;2.45;;;15.60;99.90;;;;;;5032048;28;20033;-73
2023/06/09 05:40:45;;;;;;;7.10;2.45;;;15.70;99.90;;;;;;5032371;28;20036;-72
2023/06/09 05:43:10;;;;;;;9.73;2.38;;;15.90;99.90;;;;;;5049730;28;20106;-73
2023/06/09 05:45:36;;;;;;;13.82;2.78;;;16.10;99.90;;;;;;5049652;28;20039;-71
2023/06/09 05:48:03;;;;;;;10.88;2.10;;;16.40;99.90;;;;;;5049488;28;20124;-73
2023/06/09 05:50:28;;;;;;;12.65;2.55;;;16.80;99.90;;;;;;5050162;28;20378;-71
2023/06/09 05:52:54;;;;;;;7.93;1.90;;;17.20;99.90;;;;;;5032314;28;20051;-70
2023/06/09 05:55:20;;;;;;;8.52;2.20;;;17.80;99.90;;;;;;5031759;28;20884;-72
2023/06/09 05:57:46;;;;;;;12.25;2.10;;;18.00;99.90;;;;;;5032362;28;20083;-72
2023/06/09 06:00:13;;;;;;;6.22;2.38;;;18.40;99.00;;;;;;5031549;28;20493;-72
2023/06/09 06:02:39;;;;;;;5.45;1.88;;;18.50;99.40;;;;;;5032184;28;20037;-71
2023/06/09 06:05:06;;;;;;;6.40;2.05;;;18.80;98.80;;;;;;5054208;28;20033;-73
2023/06/09 06:07:33;;;;;;;9.60;2.03;;;18.80;98.70;;;;;;5032689;28;20178;-72
2023/06/09 06:09:59;;;;;;;5.38;2.30;;;19.00;98.70;;;;;;5031556;28;20036;-76
2023/06/09 06:12:24;;;;;;;7.47;2.00;;;19.20;98.20;;;;;;5031012;28;20041;-72
2023/06/09 06:14:50;;;;;;;8.52;2.45;;;19.30;98.50;;;;;;5048585;28;20485;-71
2023/06/09 06:17:15;;;;;;;6.90;2.47;;;19.50;98.10;;;;;;5031321;28;20547;-72
2023/06/09 06:19:41;;;;;;;6.60;2.03;;;19.50;97.90;;;;;;5049440;28;20587;-72
2023/06/09 06:22:06;;;;;;;11.57;2.20;;;19.50;97.60;;;;;;5031321;28;20408;-71
2023/06/09 06:24:32;;;;;;;7.95;2.17;;;19.60;97.30;;;;;;5049392;28;20513;-72
2023/06/09 06:26:57;;;;;;;12.10;2.30;;;19.70;97.40;;;;;;5049174;28;20382;-72
2023/06/09 06:29:23;;;;;;;7.13;2.40;;;19.70;98.00;;;;;;5031121;28;20440;-72
2023/06/09 06:31:48;;;;;;;6.10;2.53;;;20.00;97.10;;;;;;5049410;28;20044;-72
2023/06/09 06:34:14;;;;;;;6.65;2.33;;;20.10;97.50;;;;;;5030959;28;20033;-72
2023/06/09 06:36:40;;;;;;;7.28;2.72;;;20.20;97.80;;;;;;5047350;28;20099;-73
2023/06/09 06:39:06;;;;;;;4.70;2.00;;;20.50;97.90;;;;;;5043048;28;20028;-70
2023/06/09 06:41:31;;;;;;;9.75;2.50;;;20.80;97.40;;;;;;5027167;28;20033;-72
2023/06/09 06:43:57;;;;;;;10.82;2.53;;;21.30;97.00;;;;;;5047678;28;20029;-72
2023/06/09 06:46:23;;;;;;;7.95;2.38;;;21.70;95.50;;;;;;5048576;28;20044;-73
2023/06/09 06:48:48;;;;;;;8.48;2.58;;;22.30;95.60;;;;;;5048462;28;20025;-71
2023/06/09 06:51:14;;;;;;;7.20;2.65;;;23.10;94.30;;;;;;5048101;28;20032;-72
2023/06/09 06:53:39;;;;;;;6.75;2.53;;;23.80;93.80;;;;;;5025798;28;20099;-72
2023/06/09 06:56:05;;;;;;;6.70;2.53;;;24.50;94.00;;;;;;5043028;28;20417;-72
2023/06/09 06:58:31;;;;;;;11.82;3.17;;;25.10;92.80;;;;;;5025546;28;20549;-72
2023/06/09 07:00:57;;;;;;;6.95;2.72;;;25.50;92.30;;;;;;5031819;28;20469;-73
2023/06/09 07:03:26;;;;;;;13.90;3.30;;;26.00;92.00;;;;;;5032827;28;20040;-72
2023/06/09 07:05:52;;;;;;;10.53;3.37;;;26.90;90.30;;;;;;5029858;28;20390;-74
2023/06/09 07:08:18;;;;;;;9.98;3.75;;;27.70;90.20;;;;;;5049697;28;20029;-71
2023/06/09 07:10:43;;;;;;;7.43;3.20;;;28.30;87.90;;;;;;5050971;28;20041;-72
2023/06/09 07:13:09;;;;;;;11.55;3.40;;;29.10;86.80;;;;;;5050409;28;20032;-73
2023/06/09 07:15:36;;;;;;;12.43;3.50;;;29.50;86.60;;;;;;5050888;28;20075;-73
2023/06/09 07:18:05;;;;;;;8.02;3.65;;;30.00;86.00;;;;;;5036687;28;20037;-74
2023/06/09 07:20:31;;;;;;;11.10;3.90;;;30.40;83.80;;;;;;5053738;28;20045;-74
2023/06/09 07:22:57;;;;;;;10.40;4.00;;;30.80;82.40;;;;;;5047448;28;20397;-74
2023/06/09 07:25:22;;;;;;;12.68;3.67;;;31.10;83.70;;;;;;5048559;28;20068;-74
2023/06/09 07:27:48;;;;;;;7.57;3.67;;;31.70;82.60;;;;;;5046732;28;20129;-73
2023/06/09 07:30:14;;;;;;;13.50;4.63;;;31.80;81.40;;;;;;5047260;28;20149;-73
2023/06/09 07:32:39;;;;;;;10.77;4.30;;;32.40;78.00;;;;;;5047900;28;20084;-73
2023/06/09 07:35:05;;;;;;;12.75;4.20;;;32.50;77.60;;;;;;5029459;28;20041;-73
2023/06/09 07:37:31;;;;;;;14.82;4.55;;;32.40;79.90;;;;;;5028279;28;20481;-73
2023/06/09 07:39:57;;;;;;;9.65;4.00;;;32.70;76.40;;;;;;5042566;28;20025;-75
2023/06/09 07:42:22;;;;;;;11.32;3.78;;;32.60;76.10;;;;;;5047565;28;20029;-73
2023/06/09 07:44:48;;;;;;;9.90;4.15;;;32.20;76.60;;;;;;5047925;28;20499;-73
2023/06/09 07:47:14;;;;;;;16.05;4.25;;;32.40;76.90;;;;;;5046289;28;20029;-73
2023/06/09 07:49:40;;;;;;;8.40;3.90;;;32.30;75.80;;;;;;5028851;28;20025;-73
2023/06/09 07:52:06;;;;;;;10.38;4.28;;;32.30;76.30;;;;;;5047907;28;20025;-73
2023/06/09 07:54:31;;;;;;;8.15;3.78;;;32.10;77.50;;;;;;5051188;28;20025;-73
2023/06/09 07:56:57;;;;;;;12.32;4.47;;;32.00;77.60;;;;;;5055994;28;20044;-72
2023/06/09 07:59:23;;;;;;;9.60;3.95;;;32.10;78.00;;;;;;5040275;28;20056;-74
2023/06/09 08:01:48;;;;;;;10.05;4.25;;;31.90;76.70;;;;;;5035401;28;20037;-72
2023/06/09 08:04:14;;;;;;;7.85;3.60;;;32.20;75.10;;;;;;5035301;28;20410;-72
2023/06/09 08:06:39;;;;;;;10.15;4.18;;;31.90;76.70;;;;;;5049172;28;20098;-74
2023/06/09 08:09:05;;;;;;;8.43;3.72;;;31.90;76.00;;;;;;5051473;28;20029;-72
2023/06/09 08:11:31;;;;;;;11.00;4.10;;;31.80;76.60;;;;;;5051879;28;20033;-71
2023/06/09 08:13:57;;;;;;;10.75;3.60;;;31.60;75.80;;;;;;5051479;28;20059;-73
2023/06/09 08:16:23;;;;;;;8.43;4.47;;;31.10;77.70;;;;;;5033555;28;20493;-73
2023/06/09 08:18:49;;;;;;;24.38;4.63;;;30.50;77.80;;;;;;5034333;28;20029;-71
2023/06/09 08:21:15;;;;;;;8.60;3.22;;;30.20;77.90;;;;;;5029356;28;20118;-71
2023/06/09 08:23:44;;;;;;;6.35;3.38;;;29.70;79.20;;;;;;5051792;28;20492;-71
2023/06/09 08:26:10;;;;;;;5.63;2.60;;;29.10;79.90;;;;;;5051689;28;20134;-71
2023/06/09 08:28:36;;;;;;;7.18;2.45;;;28.70;81.40;;;;;;5052519;28;20808;-74
2023/06/09 08:31:03;;;;;;;8.88;2.58;;;28.40;82.70;;;;;;5033484;28;20086;-73
2023/06/09 08:33:33;;;;;;;7.00;2.63;;;28.20;82.20;;;;;;5032975;28;20091;-73
2023/06/09 08:35:59;;;;;;;;;;;28.00;83.20;;;;;;5051113;28;20029;-73
2023/06/09 08:38:25;;;;;;;8.98;2.50;;;27.80;84.40;;;;;;5032773;28;19927;-73
2023/06/09 08:40:53;;;;;;;10.48;3.10;;;27.70;84.20;;;;;;5032817;28;20025;-73
2023/06/09 08:43:19;;;;;;;5.78;2.28;;;27.70;83.90;;;;;;5051196;28;20063;-73
2023/06/09 08:45:46;;;;;;;9.60;2.33;;;27.70;84.00;;;;;;5033655;28;20065;-73
2023/06/09 08:48:17;;;;;;;7.32;2.50;;;27.70;84.90;;;;;;5032961;28;20079;-71
2023/06/09 08:50:43;;;;;;;7.97;2.90;;;27.60;84.90;;;;;;5033863;28;20033;-72
2023/06/09 08:53:10;;;;;;;5.78;2.88;;;27.50;83.50;;;;;;5050850;28;20041;-73
2023/06/09 08:55:36;;;;;;;6.43;3.28;;;27.30;83.50;;;;;;5034004;28;20064;-71
2023/06/09 08:58:03;;;;;;;4.47;2.28;;;27.10;84.50;;;;;;5051607;28;20028;-74
2023/06/09 09:00:29;;;;;;;4.47;2.25;;;27.10;84.70;;;;;;5033388;28;20040;-73
2023/06/09 09:02:56;;;;;;;9.38;3.28;;;27.10;85.90;;;;;;5051137;28;20082;-71
2023/06/09 09:05:21;;;;;;;8.15;2.90;;;27.00;85.50;;;;;;5056435;28;20535;-73
2023/06/09 09:07:47;;;;;;;5.72;3.17;;;27.10;85.50;;;;;;5050677;28;20033;-72
2023/06/09 09:10:14;;;;;;;6.97;2.88;;;27.20;85.10;;;;;;5032885;28;20045;-72
2023/06/09 09:12:47;;;;;;;8.20;2.85;;;27.20;84.10;;;;;;5032994;28;20116;-71
2023/06/09 09:15:13;;;;;;;8.27;3.35;;;27.20;84.50;;;;;;5028855;28;20182;-73
2023/06/09 09:17:40;;;;;;;8.45;2.53;;;27.20;84.00;;;;;;5050775;28;20115;-73
2023/06/09 09:20:10;;;;;;;4.93;2.50;;;27.00;85.60;;;;;;5049554;28;20036;-73
2023/06/09 09:22:49;;;;;;;7.18;2.30;;;27.30;84.50;;;;;;5050555;28;20044;-72
2023/06/09 09:25:28;;;;;;;4.47;2.03;;;27.30;84.30;;;;;;5046824;28;20087;-72
2023/06/09 09:28:12;;;;;;;6.25;2.92;;;27.30;85.40;;;;;;5030548;28;20074;-72
2023/06/09 09:30:44;;;;;;;6.55;2.70;;;27.30;84.30;;;;;;5032506;28;20562;-71
2023/06/09 09:33:15;;;;;;;8.23;2.70;;;27.30;84.40;;;;;;5032215;28;20104;-72
2023/06/09 09:35:44;;;;;;;4.50;2.55;;;27.40;86.40;;;;;;5032612;28;20048;-73
2023/06/09 09:38:16;;;;;;;6.10;2.35;;;27.60;85.30;;;;;;5036962;28;20052;-72
2023/06/09 09:40:47;;;;;;;5.57;2.00;;;27.70;84.70;;;;;;5032574;28;20085;-72
2023/06/09 09:43:14;;;;;;;7.82;2.20;;;27.90;84.50;;;;;;5031583;28;20401;-71
2023/06/09 09:45:43;;;;;;;11.07;2.25;;;28.00;85.10;;;;;;5028789;28;20119;-71
2023/06/09 09:48:11;;;;;;;5.53;2.13;;;28.10;84.60;;;;;;5049749;28;20040;-72
2023/06/09 09:50:38;;;;;;;8.60;2.55;;;28.20;83.70;;;;;;5033446;28;20037;-71
2023/06/09 09:53:07;;;;;;;5.05;2.10;;;28.20;83.30;;;;;;5034179;28;20082;-72
2023/06/09 09:55:35;;;;;;;8.10;2.33;;;28.30;83.10;;;;;;5050939;28;20036;-72
2023/06/09 09:58:05;;;;;;;7.15;2.72;;;28.30;83.10;;;;;;5049301;28;20040;-72
2023/06/09 10:00:35;;;;;;;9.57;3.13;;;28.30;82.80;;;;;;5032158;28;20040;-72
2023/06/09 10:03:05;;;;;;;5.60;2.05;;;28.20;82.60;;;;;;5031682;28;20413;-73
2023/06/09 10:05:33;;;;;;;5.75;3.15;;;28.10;83.40;;;;;;5036780;28;20119;-73
2023/06/09 10:08:02;;;;;;;9.95;2.25;;;28.20;82.40;;;;;;5049069;28;20029;-74
2023/06/09 10:10:30;;;;;;;11.10;2.63;;;28.30;82.70;;;;;;5031834;28;20056;-71
2023/06/09 10:12:57;;;;;;;3.97;1.85;;;28.30;82.40;;;;;;5049708;28;20494;-71
2023/06/09 10:15:24;;;;;;;5.85;1.92;;;28.20;82.00;;;;;;5031391;28;20045;-72
2023/06/09 10:17:55;;;;;;;5.72;2.15;;;28.20;81.80;;;;;;5049631;28;20025;-71
2023/06/09 10:20:21;;;;;;;5.18;2.47;;;28.40;82.20;;;;;;5049472;28;20106;-72
2023/06/09 10:22:48;;;;;;;2.95;1.70;;;28.40;82.00;;;;;;5049201;28;20025;-72
2023/06/09 10:25:14;;;;;;;3.90;2.20;;;28.40;81.30;;;;;;5049280;28;20029;-74
2023/06/09 10:27:40;;;;;;;6.50;2.33;;;28.60;82.00;;;;;;5047476;28;20394;-73
2023/06/09 10:30:07;;;;;;;5.65;1.88;;;28.70;81.60;;;;;;5031625;28;20432;-73
2023/06/09 10:32:35;;;;;;;7.22;2.30;;;28.80;82.10;;;;;;5033840;28;20025;-73
2023/06/09 10:35:03;;;;;;;13.45;2.50;;;28.90;82.10;;;;;;5048614;28;20029;-71
2023/06/09 10:37:30;;;;;;;4.43;2.17;;;29.00;80.60;;;;;;5047292;28;20110;-72
2023/06/09 10:40:10;;;;;;;6.45;2.10;;;29.10;79.40;;;;;;5044461;28;20553;-71
2023/06/09 10:42:59;;;;;;;7.80;2.17;;;29.10;79.20;;;;;;5030909;28;20409;-72
2023/06/09 10:45:49;;;;;;;4.88;2.05;;;28.90;78.60;;;;;;5005437;28;20086;-72
2023/06/09 10:48:53;;;;;;;5.45;1.60;;;29.00;79.30;;;;;;5034241;28;20444;-71
2023/06/09 10:51:28;;;;;;;5.30;1.70;;;29.00;79.00;;;;;;5046895;28;20025;-72
2023/06/09 10:54:17;;;;;;;7.90;2.60;;;29.00;79.30;;;;;;5031197;28;20063;-72
2023/06/09 10:56:52;;;;;;;4.70;2.35;;;29.00;80.10;;;;;;5043636;28;20102;-72
2023/06/09 10:59:23;;;;;;;7.30;2.22;;;29.10;79.00;;;;;;5047019;28;20049;-72
2023/06/09 11:02:04;;;;;;;7.72;1.98;;;29.20;79.60;;;;;;5027566;28;20033;-71
2023/06/09 11:04:44;;;;;;;3.20;1.85;;;29.20;80.00;;;;;;5048997;28;20045;-73
2023/06/09 11:07:15;;;;;;;6.90;2.45;;;29.40;79.00;;;;;;5047800;28;20043;-72
2023/06/09 11:10:00;;;;;;;6.32;1.90;;;29.30;78.20;;;;;;5030038;28;20037;-73
2023/06/09 11:12:42;;;;;;;6.88;2.17;;;29.10;80.30;;;;;;5029703;28;20037;-73
2023/06/09 11:15:12;;;;;;;5.20;2.08;;;29.00;80.00;;;;;;5046959;28;20053;-73
2023/06/09 11:17:40;;;;;;;;;;;29.10;79.00;;;;;;5044636;28;20032;-73
2023/06/09 11:20:09;;;;;;;3.50;1.88;;;29.20;78.80;;;;;;5025657;28;19944;-73
2023/06/09 11:23:03;;;;;;;13.13;2.30;;;29.20;79.60;;;;;;5022211;28;20025;-73
2023/06/09 11:25:30;;;;;;;3.55;2.15;;;29.30;79.70;;;;;;5041583;28;21631;-73
2023/06/09 11:27:55;;;;;;;3.17;1.88;;;29.30;78.70;;;;;;5048178;28;20493;-73
2023/06/09 11:30:25;;;;;;;4.30;2.20;;;29.40;79.00;;;;;;5031334;28;20037;-73
2023/06/09 11:32:52;;;;;;;12.75;2.20;;;29.40;79.10;;;;;;5036771;28;20029;-72
2023/06/09 11:35:39;;;;;;;6.88;2.20;;;29.50;79.60;;;;;;5048631;28;20040;-73
2023/06/09 11:38:07;;;;;;;6.15;2.65;;;29.60;82.00;;;;;;5021852;28;20494;-73
2023/06/09 11:40:34;;;;;;;11.82;2.88;;;29.70;78.70;;;;;;5031013;28;20128;-72
2023/06/09 11:43:01;;;;;;;3.53;1.98;;;29.60;77.50;;;;;;5056171;28;20056;-71
2023/06/09 11:45:30;;;;;;;2.50;1.90;;;29.60;76.60;;;;;;5041092;28;20405;-72
2023/06/09 11:47:59;;;;;;;4.07;1.80;;;29.70;75.20;;;;;;5030959;28;21836;-72
2023/06/09 11:50:46;;;;;;;3.20;1.80;;;29.80;75.70;;;;;;5029047;28;20045;-72
2023/06/09 11:53:17;;;;;;;3.38;1.92;;;29.80;75.50;;;;;;5028178;28;20362;-72
2023/06/09 11:55:43;;;;;;;7.07;2.35;;;29.90;76.10;;;;;;5047437;28;20110;-72
2023/06/09 11:58:10;;;;;;;3.65;2.10;;;30.00;74.70;;;;;;5046851;28;20569;-72
2023/06/09 12:00:41;;;;;;;5.72;1.83;;;30.00;75.70;;;;;;5029443;28;20045;-71
2023/06/09 12:03:07;;;;;;;4.90;1.73;;;30.00;74.30;;;;;;5025578;28;20523;-72
2023/06/09 12:05:34;;;;;;;7.68;2.35;;;30.10;74.10;;;;;;5050964;28;20104;-72
2023/06/09 12:08:02;;;;;;;4.47;2.08;;;30.10;74.10;;;;;;5028947;28;20029;-72
2023/06/09 12:10:29;;;;;;;5.47;1.88;;;30.10;75.40;;;;;;5029989;28;20037;-73
2023/06/09 12:12:58;;;;;;;3.97;1.48;;;30.20;73.10;;;;;;5029384;28;20032;-72
2023/06/09 12:15:26;;;;;;;3.85;2.15;;;30.40;74.40;;;;;;5029165;28;20049;-72
2023/06/09 12:17:56;;;;;;;5.05;2.63;;;30.50;73.90;;;;;;5030260;28;20033;-71
2023/06/09 12:20:28;;;;;;;4.35;2.35;;;30.40;73.80;;;;;;5029660;28;20102;-72
2023/06/09 12:22:56;;;;;;;6.10;1.75;;;30.20;73.90;;;;;;5029996;28;20410;-73
2023/06/09 12:25:31;;;;;;;5.90;1.90;;;29.90;74.40;;;;;;5047689;28;20059;-72
2023/06/09 12:28:10;;;;;;;3.25;2.00;;;29.70;74.20;;;;;;5048066;28;20374;-74
2023/06/09 12:30:39;;;;;;;5.13;2.10;;;29.40;74.10;;;;;;5018692;28;20454;-73
2023/06/09 12:33:09;;;;;;;5.47;2.55;;;29.20;75.50;;;;;;5030880;28;20053;-73
2023/06/09 12:35:42;;;;;;;2.08;1.63;;;29.20;74.70;;;;;;5046849;28;20044;-72
2023/06/09 12:38:09;;;;;;;5.38;1.70;;;29.20;75.80;;;;;;5052198;28;20064;-73
2023/06/09 12:41:07;;;;;;;2.20;1.35;;;29.20;74.00;;;;;;5046433;28;20045;-74
2023/06/09 12:43:43;;;;;;;4.72;1.70;;;29.30;74.60;;;;;;5033902;28;20113;-72
2023/06/09 12:46:09;;;;;;;4.05;1.50;;;29.50;73.00;;;;;;5026841;28;20063;-72
2023/06/09 12:48:57;;;;;;;4.05;1.75;;;29.40;70.80;;;;;;5030076;28;20477;-72
2023/06/09 12:51:24;;;;;;;4.05;1.67;;;29.30;71.40;;;;;;5046322;28;20053;-73